Time;durP1;ratioP1;P1;durP2;ratioP2;P2;SDS_P1;SDS_P2;PMS_P1;PMS_P2;Temp;Humidity;BMP_temperature;BMP_pressure;BME280_temperature;BME280_humidity;BME280_pressure;Samples;Min_cycle;Max_cycle;Signal;HPM_P1;HPM_P2
2023/07/20 00:01:13;;;;;;;5.07;2.20;;;;;;;20.97;34.76;100993.69;5090153;28;20097;-70
2023/07/20 00:03:41;;;;;;;3.47;2.08;;;;;;;20.95;34.71;100986.56;5091630;28;20044;-71
2023/07/20 00:06:10;;;;;;;3.67;2.05;;;;;;;20.95;34.89;100984.66;5091395;28;20087;-73
2023/07/20 00:08:38;;;;;;;4.45;2.30;;;;;;;20.90;34.89;100981.63;5091138;28;20071;-74
2023/07/20 00:11:06;;;;;;;4.03;2.15;;;;;;;20.88;34.85;100980.97;5089094;28;20263;-73
2023/07/20 00:13:34;;;;;;;3.92;2.30;;;;;;;20.87;34.73;100976.44;5089851;28;20153;-73
2023/07/20 00:16:02;;;;;;;4.03;2.08;;;;;;;20.85;35.04;100977.72;5090618;28;20040;-74
2023/07/20 00:18:30;;;;;;;3.42;2.00;;;;;;;20.85;34.89;100977.72;5091048;28;20090;-74
2023/07/20 00:20:59;;;;;;;4.93;2.15;;;;;;;20.83;35.02;100985.41;5090058;28;20040;-71
2023/07/20 00:23:29;;;;;;;3.58;1.92;;;;;;;20.83;35.21;100979.84;5089452;28;20044;-70
2023/07/20 00:25:57;;;;;;;3.75;2.60;;;;;;;20.78;35.17;100980.41;5091205;28;20048;-70
2023/07/20 00:28:25;;;;;;;4.10;2.47;;;;;;;20.77;35.01;100984.28;5070886;28;20123;-70
2023/07/20 00:30:53;;;;;;;4.60;2.50;;;;;;;20.74;35.26;100979.97;5070668;28;20454;-70
2023/07/20 00:33:20;;;;;;;4.15;2.30;;;;;;;20.73;35.05;100978.25;5089975;28;20078;-70
2023/07/20 00:35:48;;;;;;;3.95;2.47;;;;;;;20.72;35.45;100979.31;5090303;28;20040;-70
2023/07/20 00:38:17;;;;;;;3.38;2.22;;;;;;;20.70;35.22;100973.06;5091171;28;20044;-70
2023/07/20 00:40:46;;;;;;;4.70;2.28;;;;;;;20.72;35.38;100970.97;5069250;28;20045;-69
2023/07/20 00:43:14;;;;;;;3.45;2.00;;;;;;;20.68;35.21;100974.34;5070570;28;20453;-70
2023/07/20 00:45:44;;;;;;;3.17;2.03;;;;;;;20.68;35.58;100975.22;5068454;28;20113;-70
2023/07/20 00:48:13;;;;;;;3.92;2.03;;;;;;;20.67;35.19;100975.41;5068975;28;20056;-70
2023/07/20 00:50:41;;;;;;;3.78;2.00;;;;;;;20.65;35.40;100972.81;5069037;28;20414;-70
2023/07/20 00:53:09;;;;;;;3.42;1.80;;;;;;;20.65;35.10;100980.28;5083371;28;20119;-70
2023/07/20 00:55:37;;;;;;;3.67;2.00;;;;;;;20.63;35.41;100985.19;5090162;28;20048;-70
2023/07/20 00:58:09;;;;;;;4.10;1.90;;;;;;;20.64;35.47;100984.13;5089291;28;20036;-70
2023/07/20 01:00:37;;;;;;;3.53;2.15;;;;;;;20.59;35.47;100979.19;5089741;28;20533;-69
2023/07/20 01:03:05;;;;;;;3.75;2.35;;;;;;;20.58;35.31;100984.91;5090410;28;20036;-69
2023/07/20 01:05:42;;;;;;;2.85;1.73;;;;;;;20.60;35.81;100985.59;5090524;28;20422;-69
2023/07/20 01:08:28;;;;;;;3.80;1.92;;;;;;;20.58;36.25;100984.91;5089315;28;20114;-70
2023/07/20 01:11:04;;;;;;;3.40;1.90;;;;;;;20.54;36.29;100983.56;5091060;28;20048;-70
2023/07/20 01:13:34;;;;;;;3.30;2.00;;;;;;;20.53;36.05;100991.03;5091016;28;20048;-70
2023/07/20 01:16:02;;;;;;;3.42;1.85;;;;;;;20.50;36.33;100983.09;5088864;28;20044;-70
2023/07/20 01:18:30;;;;;;;3.20;1.90;;;;;;;20.48;36.49;100974.09;5090472;28;20131;-70
2023/07/20 01:21:02;;;;;;;4.53;2.20;;;;;;;20.50;36.59;100977.53;5088810;28;20040;-71
2023/07/20 01:24:01;;;;;;;3.15;2.10;;;;;;;20.48;37.12;100981.56;5089531;28;20454;-70
2023/07/20 01:26:48;;;;;;;3.35;1.85;;;;;;;20.48;37.90;100981.56;5094114;28;20044;-70
2023/07/20 01:29:40;;;;;;;3.50;2.03;;;;;;;20.46;37.37;100980.91;5092944;28;20136;-70
2023/07/20 01:32:11;;;;;;;4.10;1.83;;;;;;;20.45;37.60;100987.53;5093268;28;20063;-71
2023/07/20 01:34:40;;;;;;;4.13;2.20;;;;;;;20.43;37.01;100984.09;5092110;28;20048;-70
2023/07/20 01:37:11;;;;;;;3.38;2.08;;;;;;;20.42;37.03;100979.56;5094282;28;20046;-71
2023/07/20 01:39:39;;;;;;;2.97;1.95;;;;;;;20.39;37.38;100976.13;5093914;28;20094;-70
2023/07/20 01:42:08;;;;;;;3.40;1.98;;;;;;;20.38;37.46;100985.53;5094299;28;20094;-70
2023/07/20 01:44:38;;;;;;;4.53;2.05;;;;;;;20.40;38.00;100979.78;5093521;28;20055;-70
2023/07/20 01:47:06;;;;;;;3.80;2.20;;;;;;;20.35;37.51;100969.25;5114711;28;20040;-70
2023/07/20 01:49:36;;;;;;;4.13;2.10;;;;;;;20.37;37.65;100972.66;5095787;28;20122;-70
2023/07/20 01:52:04;;;;;;;4.25;2.17;;;;;;;20.33;37.22;100965.81;5096279;28;20051;-70
2023/07/20 01:54:32;;;;;;;4.00;2.13;;;;;;;20.33;37.71;100970.50;5113788;28;20157;-70
2023/07/20 01:57:00;;;;;;;3.67;2.28;;;;;;;20.30;37.74;100971.75;5095421;28;20048;-70
2023/07/20 01:59:28;;;;;;;4.07;2.13;;;;;;;20.29;37.50;100970.00;5095656;28;20042;-70
2023/07/20 02:01:56;;;;;;;4.10;2.22;;;;;;;20.27;37.61;100965.72;5096406;28;20134;-70
2023/07/20 02:04:24;;;;;;;3.55;2.03;;;;;;;20.25;37.70;100974.25;5114053;28;20131;-70
2023/07/20 02:06:53;;;;;;;4.28;2.00;;;;;;;20.25;37.38;100960.34;5113964;28;20430;-70
2023/07/20 02:09:23;;;;;;;4.18;2.10;;;;;;;20.21;37.65;100956.22;5091884;28;20086;-71
2023/07/20 02:11:51;;;;;;;4.10;1.77;;;;;;;20.20;37.83;100962.00;5093729;28;20051;-71
2023/07/20 02:14:22;;;;;;;3.58;1.83;;;;;;;20.18;37.76;100967.75;5093915;28;20040;-70
2023/07/20 02:16:52;;;;;;;3.47;2.08;;;;;;;20.16;37.62;100967.09;5093502;28;20495;-71
2023/07/20 02:19:21;;;;;;;2.90;1.73;;;;;;;20.16;37.36;100960.66;5091812;28;20051;-70
2023/07/20 02:21:49;;;;;;;4.47;2.00;;;;;;;20.13;37.71;100959.13;5091851;28;20067;-71
2023/07/20 02:24:19;;;;;;;4.50;1.80;;;;;;;20.13;37.61;100958.25;5082108;28;20067;-70
2023/07/20 02:26:46;;;;;;;4.07;1.90;;;;;;;20.09;37.59;100963.38;5072706;28;20062;-70
2023/07/20 02:29:14;;;;;;;3.42;2.05;;;;;;;20.08;37.58;100966.34;5083947;28;20404;-71
2023/07/20 02:31:42;;;;;;;3.40;1.90;;;;;;;20.07;38.13;100967.38;5113378;28;20127;-71
2023/07/20 02:34:11;;;;;;;3.28;1.83;;;;;;;20.06;38.11;100972.06;5113601;28;20043;-70
2023/07/20 02:36:39;;;;;;;3.70;1.77;;;;;;;20.04;38.08;100968.63;5105520;28;20040;-70
2023/07/20 02:39:07;;;;;;;4.30;1.85;;;;;;;20.04;37.98;100979.72;5091849;28;20090;-70
2023/07/20 02:41:36;;;;;;;3.65;1.80;;;;;;;20.04;38.15;100976.97;5093175;28;20062;-69
2023/07/20 02:44:04;;;;;;;3.95;2.00;;;;;;;20.00;38.13;100976.50;5093099;28;20074;-69
2023/07/20 02:46:32;;;;;;;3.90;2.08;;;;;;;19.99;38.00;100971.13;5092857;28;20036;-69
2023/07/20 02:49:01;;;;;;;3.40;1.90;;;;;;;19.97;38.35;100979.66;5092660;28;20502;-69
2023/07/20 02:51:28;;;;;;;4.20;2.05;;;;;;;19.96;38.35;100975.16;5091374;28;20123;-68
2023/07/20 02:53:57;;;;;;;4.18;1.90;;;;;;;19.94;38.23;100977.28;5092571;28;20043;-69
2023/07/20 02:56:24;;;;;;;4.00;2.15;;;;;;;19.93;38.21;100969.13;5092616;28;20072;-69
2023/07/20 02:58:54;;;;;;;3.28;1.98;;;;;;;19.91;38.02;100971.25;5091787;28;20052;-68
2023/07/20 03:01:22;;;;;;;4.07;2.30;;;;;;;19.86;37.97;100980.13;5092675;28;20040;-68
2023/07/20 03:03:50;;;;;;;4.15;2.28;;;;;;;19.85;37.81;100971.97;5090709;28;20475;-68
2023/07/20 03:06:18;;;;;;;3.85;2.22;;;;;;;19.81;38.07;100974.28;5090693;28;20040;-68
2023/07/20 03:08:51;;;;;;;3.75;1.98;;;;;;;19.79;38.06;100979.16;5092918;28;20090;-68
2023/07/20 03:11:20;;;;;;;3.95;2.28;;;;;;;19.76;38.12;100979.56;5099206;28;20040;-69
2023/07/20 03:13:49;;;;;;;4.45;2.13;;;;;;;19.74;38.42;100981.66;5092376;28;20067;-68
2023/07/20 03:16:20;;;;;;;3.72;2.15;;;;;;;19.73;38.57;100981.84;5090690;28;20044;-69
2023/07/20 03:18:49;;;;;;;3.92;2.03;;;;;;;19.68;38.45;100984.34;5091384;28;20502;-68
2023/07/20 03:21:16;;;;;;;4.78;2.60;;;;;;;19.65;38.29;100977.25;5090958;28;20097;-69
2023/07/20 03:23:44;;;;;;;4.57;2.25;;;;;;;19.63;38.85;100990.44;5092472;28;20051;-69
2023/07/20 03:26:12;;;;;;;3.95;2.55;;;;;;;19.60;38.52;100976.97;5091064;28;20511;-68
2023/07/20 03:28:40;;;;;;;4.13;2.13;;;;;;;19.58;38.81;100979.94;5090557;28;20048;-72
2023/07/20 03:31:10;;;;;;;4.72;2.55;;;;;;;19.56;38.80;100984.78;5082855;28;20049;-69
2023/07/20 03:33:42;;;;;;;4.38;2.50;;;;;;;19.57;38.71;100985.66;5094143;28;20097;-69
2023/07/20 03:36:11;;;;;;;4.63;2.72;;;;;;;19.54;39.01;100989.66;5087909;28;20048;-69
2023/07/20 03:38:39;;;;;;;3.00;1.88;;;;;;;19.52;39.00;100991.78;5071565;28;20562;-71
2023/07/20 03:41:06;;;;;;;4.32;2.67;;;;;;;19.52;38.97;100994.56;5075563;28;20036;-69
2023/07/20 03:43:34;;;;;;;4.82;2.40;;;;;;;19.51;38.79;100980.88;5092054;28;20109;-69
2023/07/20 03:46:06;;;;;;;4.78;2.45;;;;;;;19.50;39.14;100985.56;5090051;28;20064;-69
2023/07/20 03:48:34;;;;;;;4.17;2.30;;;;;;;19.49;39.33;100992.16;5091239;28;20055;-68
2023/07/20 03:51:04;;;;;;;4.10;2.38;;;;;;;19.52;38.95;101000.13;5089961;28;20302;-69
2023/07/20 03:53:32;;;;;;;4.88;2.30;;;;;;;19.50;38.81;101005.00;5091914;28;20062;-69
2023/07/20 03:56:00;;;;;;;4.68;2.45;;;;;;;19.50;39.25;101002.22;5072061;28;20539;-69
2023/07/20 03:58:29;;;;;;;4.22;2.75;;;;;;;19.49;39.21;101008.81;5070912;28;20516;-71
2023/07/20 04:00:58;;;;;;;5.07;2.60;;;;;;;19.50;38.93;101018.00;5081574;28;20103;-69
2023/07/20 04:03:27;;;;;;;7.40;2.80;;;;;;;19.47;39.10;101007.28;5097642;28;20326;-69
2023/07/20 04:05:56;;;;;;;4.68;2.50;;;;;;;19.47;39.04;101012.81;5086884;28;20097;-69
2023/07/20 04:08:25;;;;;;;4.32;2.55;;;;;;;19.48;39.09;101020.97;5090203;28;20052;-69
2023/07/20 04:10:53;;;;;;;3.83;2.22;;;;;;;19.44;39.54;101014.09;5091063;28;20566;-69
2023/07/20 04:13:21;;;;;;;5.75;2.45;;;;;;;19.43;39.25;101006.81;5089120;28;20071;-71
2023/07/20 04:15:49;;;;;;;5.60;2.47;;;;;;;19.44;39.40;101010.44;5089629;28;20063;-68
2023/07/20 04:18:17;;;;;;;5.57;2.85;;;;;;;19.44;39.84;101014.09;5091143;28;20094;-68
2023/07/20 04:20:46;;;;;;;4.35;2.80;;;;;;;19.43;39.78;101014.28;5089609;28;20558;-69
2023/07/20 04:23:14;;;;;;;5.20;2.60;;;;;;;19.42;39.31;101016.19;5091267;28;20081;-69
2023/07/20 04:25:45;;;;;;;4.30;2.50;;;;;;;19.45;39.76;101012.19;5086246;28;20059;-69
2023/07/20 04:28:14;;;;;;;4.30;2.72;;;;;;;19.41;39.26;101011.69;5092770;28;20051;-69
2023/07/20 04:30:50;;;;;;;5.40;2.85;;;;;;;19.42;40.05;101016.19;5092803;28;20051;-69
2023/07/20 04:33:18;;;;;;;4.65;2.83;;;;;;;19.39;39.49;101013.78;5092750;28;20514;-70
2023/07/20 04:35:52;;;;;;;4.57;2.80;;;;;;;19.41;39.79;101014.47;5090547;28;20119;-70
2023/07/20 04:38:40;;;;;;;4.20;2.42;;;;;;;19.33;39.66;101022.00;5090345;28;20056;-70
2023/07/20 04:41:17;;;;;;;4.55;2.75;;;;;;;19.38;39.65;101027.88;5093416;28;20052;-70
2023/07/20 04:43:48;;;;;;;4.50;3.08;;;;;;;19.34;39.65;101019.03;5092124;28;20135;-70
2023/07/20 04:46:23;;;;;;;5.47;3.20;;;;;;;19.36;39.93;101022.50;5092295;28;20052;-69
2023/07/20 04:48:52;;;;;;;7.15;3.15;;;;;;;19.36;40.06;101028.03;5092196;28;20058;-70
2023/07/20 04:51:22;;;;;;;6.40;3.45;;;;;;;19.37;39.74;101026.13;5092430;28;20031;-69
2023/07/20 04:53:54;;;;;;;5.45;3.05;;;;;;;19.36;40.12;101027.19;5110267;28;20035;-70
2023/07/20 04:56:25;;;;;;;7.47;3.60;;;;;;;19.39;40.07;101032.34;5092264;28;20035;-70
2023/07/20 04:58:55;;;;;;;6.25;3.30;;;;;;;19.34;40.37;101030.13;5089019;28;20510;-70
2023/07/20 05:01:23;;;;;;;5.30;3.30;;;;;;;19.36;40.16;101029.97;5093242;28;20139;-70
2023/07/20 05:03:51;;;;;;;5.85;2.90;;;;;;;19.36;39.99;101029.97;5093274;28;20110;-70
2023/07/20 05:06:20;;;;;;;4.45;2.92;;;;;;;19.37;40.50;101023.34;5079244;22;20045;-73
2023/07/20 05:08:50;;;;;;;5.10;3.10;;;;;;;19.37;40.03;101028.91;5035704;28;20546;-70
2023/07/20 05:11:27;;;;;;;5.50;3.10;;;;;;;19.38;40.31;101017.59;5057823;28;20344;-70
2023/07/20 05:14:04;;;;;;;4.82;3.03;;;;;;;19.42;41.11;101031.97;5041706;28;20032;-70
2023/07/20 05:16:34;;;;;;;6.72;3.47;;;;;;;19.39;40.81;101029.56;5037332;28;20065;-72
2023/07/20 05:19:06;;;;;;;6.47;3.90;;;;;;;19.39;40.75;101032.34;5035316;28;20037;-70
2023/07/20 05:21:51;;;;;;;6.43;4.38;;;;;;;19.43;40.94;101037.34;5037841;28;20056;-70
2023/07/20 05:24:27;;;;;;;5.80;4.35;;;;;;;19.41;40.63;101036.66;5033235;28;20076;-72
2023/07/20 05:27:08;;;;;;;6.70;4.43;;;;;;;19.43;40.70;101034.56;5044496;28;20070;-71
2023/07/20 05:29:47;;;;;;;6.03;4.30;;;;;;;19.41;40.50;101033.88;5052745;28;20119;-68
2023/07/20 05:32:23;;;;;;;6.85;4.75;;;;;;;19.40;40.58;101029.38;5054179;28;20113;-67
2023/07/20 05:34:59;;;;;;;9.13;5.40;;;;;;;19.43;40.69;101034.56;5030939;28;20457;-69
2023/07/20 05:37:28;;;;;;;7.18;4.80;;;;;;;19.42;40.69;101041.16;5019751;28;20069;-69
2023/07/20 05:39:58;;;;;;;6.60;4.95;;;;;;;19.41;40.80;101039.44;5050741;28;20049;-69
2023/07/20 05:42:30;;;;;;;7.43;4.95;;;;;;;19.44;41.08;101039.06;5034617;28;20045;-70
2023/07/20 05:45:02;;;;;;;6.88;5.32;;;;;;;19.44;41.01;101039.06;5034449;28;20037;-70
2023/07/20 05:47:31;;;;;;;7.60;4.95;;;;;;;19.39;40.69;101033.19;5046617;28;20088;-70
2023/07/20 05:49:59;;;;;;;8.75;5.32;;;;;;;19.43;40.94;101039.25;5051854;28;20041;-70
2023/07/20 05:52:27;;;;;;;7.30;4.88;;;;;;;19.44;41.00;101040.97;5051626;28;20076;-69
2023/07/20 05:54:55;;;;;;;6.80;5.38;;;;;;;19.44;41.13;101041.84;5049425;28;20112;-69
2023/07/20 05:57:23;;;;;;;8.93;5.35;;;;;;;19.46;41.10;101050.81;5050076;28;20052;-69
2023/07/20 05:59:52;;;;;;;6.13;4.80;;;;;;;19.49;41.17;101042.13;5057073;28;20681;-70
2023/07/20 06:02:21;;;;;;;6.13;4.38;;;;;;;19.47;41.23;101046.13;5057580;28;20101;-69
2023/07/20 06:04:49;;;;;;;7.50;5.47;;;;;;;19.48;40.85;101048.72;5041614;28;20045;-69
2023/07/20 06:07:17;;;;;;;6.95;5.03;;;;;;;19.50;41.24;101059.66;5049438;28;20049;-70
2023/07/20 06:09:45;;;;;;;6.63;4.82;;;;;;;19.51;40.73;101050.28;5060679;28;20495;-69
2023/07/20 06:12:13;;;;;;;7.15;4.82;;;;;;;19.52;41.08;101047.31;5054833;28;20127;-69
2023/07/20 06:14:41;;;;;;;8.05;4.53;;;;;;;19.54;41.06;101056.28;5054534;28;20040;-69
2023/07/20 06:17:10;;;;;;;5.68;4.50;;;;;;;19.58;41.36;101062.34;5064676;28;20087;-69
2023/07/20 06:19:38;;;;;;;8.88;4.72;;;;;;;19.57;41.12;101060.63;5057501;28;20592;-69
2023/07/20 06:22:06;;;;;;;6.38;4.82;;;;;;;19.58;41.26;101063.22;5028896;28;20407;-69
2023/07/20 06:24:34;;;;;;;7.90;4.50;;;;;;;19.60;40.94;101065.81;5039006;28;20503;-70
2023/07/20 06:27:02;;;;;;;6.68;4.93;;;;;;;19.61;40.90;101064.75;5060287;28;20500;-69
2023/07/20 06:29:30;;;;;;;6.00;4.45;;;;;;;19.62;40.74;101064.53;5057774;28;20057;-69
2023/07/20 06:31:58;;;;;;;6.25;4.47;;;;;;;19.65;41.12;101066.94;5043568;28;20537;-69
2023/07/20 06:34:27;;;;;;;5.38;4.28;;;;;;;19.70;41.17;101076.66;5050930;28;20517;-70
2023/07/20 06:36:56;;;;;;;6.97;3.90;;;;;;;19.69;41.18;101073.00;5041097;28;20092;-70
2023/07/20 06:39:24;;;;;;;4.90;3.80;;;;;;;19.72;40.98;101078.16;5066586;28;20055;-70
2023/07/20 06:41:54;;;;;;;6.22;4.00;;;;;;;19.73;40.66;101074.34;5054804;28;20047;-70
2023/07/20 06:44:23;;;;;;;5.68;4.00;;;;;;;19.74;40.96;101064.97;5052146;28;20107;-70
2023/07/20 06:46:51;;;;;;;5.82;4.05;;;;;;;19.75;40.88;101063.91;5057425;28;20509;-69
2023/07/20 06:49:27;;;;;;;5.93;4.00;;;;;;;19.80;41.16;101066.97;5064772;28;20144;-69
2023/07/20 06:51:55;;;;;;;5.15;3.22;;;;;;;19.77;40.87;101067.38;5065589;28;20054;-69
2023/07/20 06:54:23;;;;;;;5.43;3.33;;;;;;;19.79;40.60;101073.56;5037279;28;20048;-70
2023/07/20 06:56:51;;;;;;;5.60;2.92;;;;;;;19.79;40.85;101081.06;5066896;28;20395;-70
2023/07/20 06:59:22;;;;;;;4.00;2.38;;;;;;;19.80;40.70;101075.31;5069686;28;20052;-61
2023/07/20 07:01:50;;;;;;;4.65;2.60;;;;;;;19.83;40.87;101072.16;5069779;28;20072;-62
2023/07/20 07:04:18;;;;;;;4.53;2.60;;;;;;;19.87;40.91;101076.25;5069272;28;20044;-61
2023/07/20 07:06:48;;;;;;;3.95;2.70;;;;;;;19.94;40.82;101082.84;5069341;28;20043;-62
2023/07/20 07:09:16;;;;;;;3.72;2.65;;;;;;;19.98;40.84;101083.31;5069513;28;20037;-60
2023/07/20 07:11:44;;;;;;;4.60;2.45;;;;;;;20.06;40.54;101082.34;5069381;28;20040;-62
2023/07/20 07:14:13;;;;;;;4.03;2.70;;;;;;;20.12;40.12;101082.44;5069727;28;20048;-61
2023/07/20 07:16:40;;;;;;;3.58;2.40;;;;;;;20.19;40.24;101088.97;5068833;28;20045;-62
2023/07/20 07:19:08;;;;;;;3.33;2.38;;;;;;;20.25;40.13;101079.88;5069317;28;20570;-62
2023/07/20 07:21:36;;;;;;;4.30;2.40;;;;;;;20.32;39.74;101088.28;5069594;28;20131;-60
2023/07/20 07:24:07;;;;;;;3.15;2.20;;;;;;;20.39;39.56;101092.00;5068933;28;20080;-63
2023/07/20 07:26:35;;;;;;;3.42;2.30;;;;;;;20.44;39.83;101091.44;5068655;28;20040;-62
2023/07/20 07:29:03;;;;;;;3.05;2.03;;;;;;;20.52;39.71;101085.78;5069310;28;20119;-62
2023/07/20 07:31:31;;;;;;;3.13;2.13;;;;;;;20.58;39.54;101085.88;5069398;28;20136;-61
2023/07/20 07:33:59;;;;;;;3.17;1.92;;;;;;;20.68;39.67;101086.47;5066533;28;20053;-63
2023/07/20 07:36:27;;;;;;;2.60;1.58;;;;;;;20.77;39.30;101092.78;5048680;28;20045;-60
2023/07/20 07:38:55;;;;;;;3.58;1.80;;;;;;;20.87;39.09;101095.22;5048822;28;20041;-63
2023/07/20 07:41:27;;;;;;;3.10;1.75;;;;;;;20.98;38.99;101086.34;5048871;28;20041;-59
2023/07/20 07:43:55;;;;;;;3.08;1.80;;;;;;;21.03;38.78;101097.75;5049596;28;20048;-62
2023/07/20 07:46:23;;;;;;;2.70;1.63;;;;;;;21.09;38.52;101089.50;5030700;28;20048;-62
2023/07/20 07:48:51;;;;;;;2.88;1.80;;;;;;;21.15;38.31;101097.03;5048739;28;20117;-62
2023/07/20 07:51:19;;;;;;;2.97;1.80;;;;;;;21.20;38.23;101095.56;5048657;28;20045;-62
2023/07/20 07:53:49;;;;;;;3.15;1.80;;;;;;;21.23;38.04;101104.41;5048883;28;20041;-71
2023/07/20 07:56:21;;;;;;;4.18;1.85;;;;;;;21.29;38.20;101105.56;5047669;28;20131;-72
2023/07/20 07:58:51;;;;;;;2.83;1.77;;;;;;;21.33;37.39;101106.88;5041974;28;20393;-73
2023/07/20 08:01:19;;;;;;;3.10;1.40;;;;;;;21.32;37.35;101111.59;5029331;28;20053;-74
2023/07/20 08:03:47;;;;;;;3.05;1.30;;;;;;;21.33;37.62;101110.53;5023361;28;20109;-73
2023/07/20 08:06:16;;;;;;;2.42;1.40;;;;;;;21.33;37.54;101113.31;5046701;28;20041;-74
2023/07/20 08:08:43;;;;;;;2.30;1.45;;;;;;;21.33;37.33;101109.69;5046813;28;20049;-74
2023/07/20 08:11:11;;;;;;;2.65;1.40;;;;;;;21.32;37.42;101117.16;5046803;28;20044;-74
2023/07/20 08:13:42;;;;;;;3.10;1.58;;;;;;;21.32;37.48;101108.81;5046403;28;20049;-74
2023/07/20 08:16:11;;;;;;;1.95;1.05;;;;;;;21.36;37.35;101118.47;5047165;28;20544;-75
2023/07/20 08:18:39;;;;;;;1.92;1.20;;;;;;;21.37;37.13;101111.84;5046511;28;20084;-74
2023/07/20 08:21:08;;;;;;;2.30;1.10;;;;;;;21.42;37.18;101122.41;5029320;28;20065;-74
2023/07/20 08:23:36;;;;;;;1.35;0.90;;;;;;;21.47;37.13;101120.72;5042869;28;20152;-74
2023/07/20 08:26:04;;;;;;;1.55;1.00;;;;;;;21.55;37.09;101114.16;5041371;28;20045;-74
2023/07/20 08:28:32;;;;;;;2.08;0.95;;;;;;;21.63;36.97;101122.38;5043090;28;20075;-74
2023/07/20 08:31:00;;;;;;;1.55;0.90;;;;;;;21.70;36.79;101114.94;5045817;28;20125;-74
2023/07/20 08:33:33;;;;;;;1.17;0.80;;;;;;;21.82;36.79;101112.47;5026781;28;20049;-74
2023/07/20 08:36:03;;;;;;;1.48;0.80;;;;;;;21.92;36.39;101118.59;5025301;28;20272;-74
2023/07/20 08:38:31;;;;;;;1.00;0.60;;;;;;;22.01;36.34;101113.72;5024887;28;20542;-73
2023/07/20 08:40:59;;;;;;;0.82;0.60;;;;;;;22.11;36.13;101120.63;5043739;28;20420;-74
2023/07/20 08:43:28;;;;;;;1.40;0.90;;;;;;;22.24;35.78;101119.88;5040130;28;20041;-73
2023/07/20 08:45:57;;;;;;;1.00;0.50;;;;;;;22.34;35.49;101128.75;5044437;28;20045;-74
2023/07/20 08:48:26;;;;;;;0.93;0.50;;;;;;;22.45;35.18;101127.28;5045679;28;20040;-74
2023/07/20 08:50:56;;;;;;;0.65;0.52;;;;;;;22.58;34.79;101128.25;5041264;28;20118;-74
2023/07/20 08:53:24;;;;;;;0.60;0.60;;;;;;;22.67;34.80;101123.38;5046043;28;20048;-74
2023/07/20 08:55:53;;;;;;;0.38;0.38;;;;;;;22.77;34.43;101126.63;5045309;28;20041;-74
2023/07/20 08:58:21;;;;;;;1.17;0.52;;;;;;;22.87;34.47;101126.22;5050666;28;20040;-74
2023/07/20 09:00:52;;;;;;;1.30;0.50;;;;;;;22.95;34.20;101120.47;5027525;28;20362;-74
2023/07/20 09:03:20;;;;;;;0.93;0.55;;;;;;;23.03;34.47;101118.34;5047411;28;20075;-74
2023/07/20 09:05:48;;;;;;;0.80;0.52;;;;;;;23.13;33.71;101120.72;5043179;28;20125;-74
2023/07/20 09:08:17;;;;;;;0.68;0.50;;;;;;;23.23;33.52;101124.03;5027464;28;20044;-74
2023/07/20 09:10:45;;;;;;;0.95;0.60;;;;;;;23.30;33.43;101121.22;5031188;28;20349;-74
2023/07/20 09:13:15;;;;;;;1.35;0.70;;;;;;;23.38;33.34;101118.25;5043309;28;20045;-74
2023/07/20 09:15:47;;;;;;;0.93;0.68;;;;;;;23.44;32.55;101120.16;5029268;28;20056;-74
2023/07/20 09:18:25;;;;;;;0.75;0.60;;;;;;;23.48;32.12;101121.47;5042941;28;20091;-75
2023/07/20 09:20:53;;;;;;;1.00;0.63;;;;;;;23.48;32.65;101117.81;5031231;28;20044;-74
2023/07/20 09:23:31;;;;;;;1.10;0.70;;;;;;;23.53;32.04;101120.81;5045649;28;20571;-74
2023/07/20 09:25:59;;;;;;;1.30;0.70;;;;;;;23.51;32.26;101120.16;5035362;28;20141;-74
2023/07/20 09:28:28;;;;;;;1.15;0.70;;;;;;;23.51;32.17;101117.38;5030451;28;20052;-74
2023/07/20 09:30:58;;;;;;;1.45;0.70;;;;;;;23.49;32.23;101123.22;5023062;28;20041;-74
2023/07/20 09:33:26;;;;;;;1.42;0.85;;;;;;;23.48;31.97;101117.81;5027240;28;20052;-74
2023/07/20 09:35:55;;;;;;;1.40;0.70;;;;;;;23.47;31.97;101122.56;5021366;28;20045;-74
2023/07/20 09:38:30;;;;;;;0.73;0.60;;;;;;;23.49;31.92;101117.63;5018330;28;20076;-74
2023/07/20 09:41:19;;;;;;;0.60;0.60;;;;;;;23.48;31.79;101120.63;5040695;28;20045;-74
2023/07/20 09:43:50;;;;;;;0.85;0.68;;;;;;;23.53;31.69;101112.44;5045414;28;20321;-74
2023/07/20 09:46:20;;;;;;;1.25;0.73;;;;;;;23.57;31.40;101113.75;5047062;28;20080;-74
2023/07/20 09:48:54;;;;;;;1.05;0.60;;;;;;;23.60;30.83;101102.13;5048706;28;20048;-74
2023/07/20 09:51:25;;;;;;;0.63;0.60;;;;;;;23.63;31.45;101108.16;5048623;28;20562;-74
2023/07/20 09:53:55;;;;;;;0.73;0.43;;;;;;;23.71;30.77;101098.72;5044140;28;20055;-74
2023/07/20 09:56:24;;;;;;;0.40;0.40;;;;;;;23.74;30.89;101104.69;5048581;28;20519;-75
2023/07/20 09:58:52;;;;;;;1.50;0.60;;;;;;;23.82;30.81;101100.91;5046720;28;20045;-74
2023/07/20 10:01:22;;;;;;;1.23;0.80;;;;;;;23.93;30.92;101099.34;5030028;28;20052;-74
2023/07/20 10:03:55;;;;;;;2.13;1.20;;;;;;;23.98;30.74;101110.78;5046484;28;20064;-74
2023/07/20 10:06:25;;;;;;;1.55;0.85;;;;;;;24.05;30.56;101111.63;5045634;28;20500;-74
2023/07/20 10:09:00;;;;;;;2.20;0.90;;;;;;;24.09;29.94;101096.97;5046582;28;20095;-74
2023/07/20 10:11:31;;;;;;;1.52;0.60;;;;;;;24.14;29.77;101104.72;5027139;28;20041;-74
2023/07/20 10:14:02;;;;;;;0.45;0.38;;;;;;;24.18;29.89;101107.91;5044590;28;20048;-74
2023/07/20 10:16:35;;;;;;;1.05;0.70;;;;;;;24.22;29.59;101098.91;5027010;28;20059;-74
2023/07/20 10:19:08;;;;;;;1.30;0.50;;;;;;;24.28;29.22;101102.75;5046971;28;20124;-74
2023/07/20 10:21:47;;;;;;;0.47;0.47;;;;;;;24.33;28.63;101101.00;5033664;28;20044;-74
2023/07/20 10:24:24;;;;;;;0.52;0.40;;;;;;;24.39;29.31;101102.13;5047947;28;20044;-74
2023/07/20 10:26:52;;;;;;;0.90;0.63;;;;;;;24.43;29.25;101097.78;5029454;28;20041;-74
2023/07/20 10:29:21;;;;;;;1.08;0.68;;;;;;;24.50;29.08;101095.81;5030177;28;20053;-74
2023/07/20 10:31:50;;;;;;;1.30;0.45;;;;;;;24.57;28.95;101101.41;5027639;28;20037;-74
2023/07/20 10:34:21;;;;;;;1.45;0.70;;;;;;;24.57;28.77;101102.25;5047259;28;20328;-75
2023/07/20 10:36:52;;;;;;;0.75;0.52;;;;;;;24.61;28.48;101100.72;5029267;28;20132;-75
2023/07/20 10:39:27;;;;;;;0.68;0.50;;;;;;;24.64;27.57;101097.50;5044599;28;20107;-74
2023/07/20 10:42:03;;;;;;;0.73;0.45;;;;;;;24.65;27.50;101098.38;5047002;28;20049;-74
2023/07/20 10:44:31;;;;;;;1.33;0.60;;;;;;;24.60;28.08;101090.63;5044788;28;20128;-74
2023/07/20 10:47:01;;;;;;;1.20;0.43;;;;;;;24.60;27.69;101093.41;5047261;28;20056;-75
2023/07/20 10:49:30;;;;;;;0.80;0.50;;;;;;;24.60;27.90;101087.81;5029069;28;20051;-74
2023/07/20 10:52:00;;;;;;;1.85;0.60;;;;;;;24.62;27.68;101087.59;5029886;28;20068;-75
2023/07/20 10:54:50;;;;;;;0.75;0.32;;;;;;;24.62;26.97;101074.47;5044869;28;20048;-74
2023/07/20 10:57:39;;;;;;;0.55;0.40;;;;;;;24.60;27.02;101078.56;5025734;28;20129;-74
2023/07/20 11:00:12;;;;;;;0.88;0.60;;;;;;;24.63;26.96;101070.59;5022232;28;20065;-74
2023/07/20 11:02:44;;;;;;;0.80;0.47;;;;;;;24.62;26.64;101071.66;5026531;28;20143;-74
2023/07/20 11:07:53;;;;;;;0.40;0.30;;;;;;;24.61;27.60;101074.69;5088283;28;19926;-73
2023/07/20 11:10:23;;;;;;;0.70;0.40;;;;;;;24.69;27.27;101071.63;5089796;28;20498;-73
2023/07/20 11:13:18;;;;;;;0.57;0.40;;;;;;;24.72;26.90;101072.06;5089497;28;20051;-74
2023/07/20 11:15:47;;;;;;;0.60;0.50;;;;;;;24.75;27.45;101070.72;5088624;28;20040;-73
2023/07/20 11:18:15;;;;;;;0.60;0.40;;;;;;;24.78;27.22;101071.16;5088564;28;20411;-73
2023/07/20 11:20:43;;;;;;;0.85;0.52;;;;;;;24.82;26.86;101069.63;5088215;28;20048;-73
2023/07/20 11:23:11;;;;;;;1.10;0.60;;;;;;;24.84;26.70;101066.59;5071859;28;20475;-74
2023/07/20 11:25:41;;;;;;;0.73;0.60;;;;;;;24.88;26.44;101065.94;5089949;28;20119;-72
2023/07/20 11:28:11;;;;;;;0.80;0.45;;;;;;;24.88;26.23;101067.88;5087903;28;20463;-73
2023/07/20 11:30:39;;;;;;;0.47;0.45;;;;;;;24.88;26.61;101065.09;5088988;28;20453;-73
2023/07/20 11:33:09;;;;;;;0.63;0.43;;;;;;;24.90;26.51;101065.69;5087435;28;20067;-73
2023/07/20 11:35:44;;;;;;;0.98;0.40;;;;;;;24.92;25.84;101049.53;5070574;28;20135;-73
2023/07/20 11:38:13;;;;;;;1.00;0.50;;;;;;;24.93;26.50;101058.78;5089786;28;20050;-72
2023/07/20 11:40:45;;;;;;;1.17;0.70;;;;;;;24.96;26.22;101044.41;5088119;28;20441;-73